createdAt,value
2018-12-22T00:00:41.365Z,7.87
2018-12-22T00:03:23.221Z,7.47
2018-12-22T00:06:05.282Z,7.03
2018-12-22T00:08:47.357Z,6.53
2018-12-22T00:11:29.499Z,8.10
2018-12-22T00:14:11.397Z,6.67
2018-12-22T00:16:53.269Z,7.30
2018-12-22T00:19:35.051Z,7.50
2018-12-22T00:22:17.179Z,6.60
2018-12-22T00:24:59.196Z,6.80
2018-12-22T00:27:41.146Z,7.60
2018-12-22T00:30:23.121Z,7.03
2018-12-22T00:33:04.882Z,7.83
2018-12-22T00:35:46.765Z,6.87
2018-12-22T00:38:28.773Z,7.30
2018-12-22T00:41:10.989Z,6.80
2018-12-22T00:43:53.045Z,6.00
2018-12-22T00:46:35.110Z,6.20
2018-12-22T00:49:17.029Z,5.90
2018-12-22T00:51:59.018Z,6.47
2018-12-22T00:54:41.046Z,6.33
2018-12-22T00:57:23.145Z,5.97
2018-12-22T01:00:06.345Z,6.33
2018-12-22T01:02:48.230Z,5.03
2018-12-22T01:05:30.150Z,5.80
2018-12-22T01:08:12.238Z,5.67
2018-12-22T01:10:54.322Z,5.83
2018-12-22T01:13:36.342Z,5.40
2018-12-22T01:16:18.191Z,5.33
2018-12-22T01:19:00.132Z,4.70
2018-12-22T01:21:42.105Z,3.83
2018-12-22T01:24:24.059Z,4.53
2018-12-22T01:27:06.189Z,3.97
2018-12-22T01:29:48.134Z,4.47
2018-12-22T01:32:30.359Z,3.37
2018-12-22T01:35:12.235Z,3.43
2018-12-22T01:37:54.015Z,3.13
2018-12-22T01:40:36.440Z,2.77
2018-12-22T01:43:18.542Z,2.80
2018-12-22T01:46:00.449Z,2.80
2018-12-22T01:48:42.635Z,2.47
2018-12-22T01:51:24.872Z,2.90
2018-12-22T01:54:06.633Z,2.63
2018-12-22T01:56:48.450Z,3.07
2018-12-22T01:59:30.627Z,3.30
2018-12-22T02:02:12.841Z,3.50
2018-12-22T02:04:55.011Z,4.20
2018-12-22T02:07:37.023Z,3.57
2018-12-22T02:10:19.345Z,3.90
2018-12-22T02:13:00.922Z,4.03
2018-12-22T02:15:42.930Z,3.83
2018-12-22T02:18:24.810Z,4.30
2018-12-22T02:21:07.173Z,4.03
2018-12-22T02:23:49.113Z,3.33
2018-12-22T02:26:30.877Z,4.13
2018-12-22T02:29:12.713Z,4.67
2018-12-22T02:31:54.747Z,4.70
2018-12-22T02:34:37.593Z,4.30
2018-12-22T02:37:19.773Z,4.93
2018-12-22T02:40:01.644Z,4.73
2018-12-22T02:42:43.753Z,4.23
2018-12-22T02:45:25.646Z,4.47
2018-12-22T02:48:07.405Z,3.80
2018-12-22T02:50:49.521Z,4.17
2018-12-22T02:53:31.274Z,4.60
2018-12-22T02:56:13.397Z,6.03
2018-12-22T02:58:55.469Z,4.37
2018-12-22T03:01:37.552Z,4.93
2018-12-22T03:04:19.600Z,4.63
2018-12-22T03:07:01.817Z,4.00
2018-12-22T03:09:43.735Z,4.80
2018-12-22T03:12:25.855Z,4.60
2018-12-22T03:15:07.802Z,3.90
2018-12-22T03:17:49.653Z,3.93
2018-12-22T03:20:31.672Z,4.30
2018-12-22T03:23:13.848Z,3.23
2018-12-22T03:25:55.806Z,4.30
2018-12-22T03:28:37.979Z,5.40
2018-12-22T03:31:20.103Z,4.30
2018-12-22T03:34:02.360Z,5.00
2018-12-22T03:36:44.373Z,3.87
2018-12-22T03:39:26.509Z,4.07
2018-12-22T03:42:08.598Z,4.87
2018-12-22T03:44:50.604Z,3.50
2018-12-22T03:47:32.775Z,3.93
2018-12-22T03:50:14.827Z,4.67
2018-12-22T03:52:56.927Z,4.10
2018-12-22T03:55:39.047Z,4.07
2018-12-22T03:58:21.095Z,4.00
2018-12-22T04:01:03.226Z,4.10
2018-12-22T04:03:44.981Z,3.90
2018-12-22T04:06:27.123Z,4.57
2018-12-22T04:09:09.378Z,3.90
2018-12-22T04:11:51.178Z,3.40
2018-12-22T04:14:33.233Z,3.77
2018-12-22T04:17:15.119Z,3.40
2018-12-22T04:19:56.922Z,3.63
2018-12-22T04:22:39.166Z,3.97
2018-12-22T04:25:21.053Z,4.00
2018-12-22T04:28:03.238Z,4.07
2018-12-22T04:30:45.307Z,3.93
2018-12-22T04:33:27.574Z,3.63
2018-12-22T04:36:09.737Z,3.70
2018-12-22T04:38:52.835Z,3.80
2018-12-22T04:41:34.814Z,4.50
2018-12-22T04:44:17.061Z,4.80
2018-12-22T04:46:59.222Z,4.10
2018-12-22T04:49:41.389Z,3.73
2018-12-22T04:52:23.430Z,3.50
2018-12-22T04:55:05.337Z,4.40
2018-12-22T04:57:47.183Z,4.00
2018-12-22T05:00:29.553Z,4.43
2018-12-22T05:03:11.617Z,3.57
2018-12-22T05:05:53.617Z,4.53
2018-12-22T05:08:35.826Z,4.13
2018-12-22T05:11:17.610Z,5.10
2018-12-22T05:13:59.701Z,3.83
2018-12-22T05:16:41.758Z,4.53
2018-12-22T05:19:23.809Z,3.70
2018-12-22T05:22:05.785Z,4.37
2018-12-22T05:24:54.020Z,4.33
2018-12-22T05:27:35.695Z,4.80
2018-12-22T05:30:17.686Z,5.27
2018-12-22T05:32:59.849Z,4.90
2018-12-22T05:35:41.759Z,4.13
2018-12-22T05:38:23.970Z,5.00
2018-12-22T05:41:06.003Z,4.77
2018-12-22T05:43:48.093Z,4.07
2018-12-22T05:46:30.139Z,3.77
2018-12-22T05:49:12.258Z,3.83
2018-12-22T05:51:54.126Z,3.57
2018-12-22T05:54:36.297Z,4.13
2018-12-22T05:57:18.208Z,3.97
2018-12-22T06:00:01.027Z,4.30
2018-12-22T06:02:43.600Z,5.13
2018-12-22T06:05:25.584Z,4.23
2018-12-22T06:08:07.573Z,4.37
2018-12-22T06:10:49.501Z,4.40
2018-12-22T06:13:31.502Z,3.90
2018-12-22T06:16:13.858Z,4.00
2018-12-22T06:18:55.727Z,4.07
2018-12-22T06:21:37.588Z,3.63
2018-12-22T06:24:19.671Z,4.33
2018-12-22T06:27:01.334Z,4.87
2018-12-22T06:29:43.666Z,3.87
2018-12-22T06:32:25.765Z,4.50
2018-12-22T06:35:07.817Z,4.20
2018-12-22T06:37:49.964Z,4.80
2018-12-22T06:40:31.906Z,4.90
2018-12-22T06:43:13.610Z,3.40
2018-12-22T06:45:55.710Z,4.23
2018-12-22T06:48:37.857Z,4.70
2018-12-22T06:51:19.857Z,3.83
2018-12-22T06:54:08.373Z,4.37
2018-12-22T06:56:50.557Z,4.43
2018-12-22T06:59:32.480Z,4.43
2018-12-22T07:02:14.551Z,5.73
2018-12-22T07:04:56.546Z,4.30
2018-12-22T07:07:38.614Z,4.77
2018-12-22T07:10:20.759Z,4.30
2018-12-22T07:13:02.767Z,3.90
2018-12-22T07:15:44.780Z,3.50
2018-12-22T07:18:26.866Z,3.60
2018-12-22T07:21:08.891Z,3.40
2018-12-22T07:23:50.812Z,4.70
2018-12-22T07:26:32.782Z,5.10
2018-12-22T07:29:15.013Z,5.43
2018-12-22T07:31:57.015Z,5.10
2018-12-22T07:34:39.091Z,4.67
2018-12-22T07:37:21.081Z,3.97
2018-12-22T07:40:02.862Z,3.57
2018-12-22T07:42:44.736Z,4.13
2018-12-22T07:45:26.847Z,3.40
2018-12-22T07:48:09.814Z,4.33
2018-12-22T07:50:51.986Z,4.13
2018-12-22T07:53:33.810Z,5.37
2018-12-22T07:56:16.287Z,4.10
2018-12-22T07:58:58.191Z,4.97
2018-12-22T08:01:40.208Z,4.47
2018-12-22T08:04:22.486Z,4.13
2018-12-22T08:07:04.611Z,4.50
2018-12-22T08:09:46.788Z,4.20
2018-12-22T08:12:28.839Z,4.13
2018-12-22T08:15:10.688Z,3.93
2018-12-22T08:17:52.674Z,5.27
2018-12-22T08:20:34.793Z,4.13
2018-12-22T08:23:16.999Z,4.70
2018-12-22T08:25:58.861Z,4.67
2018-12-22T08:28:41.004Z,5.03
2018-12-22T08:31:23.211Z,5.83
2018-12-22T08:34:05.351Z,4.93
2018-12-22T08:36:47.254Z,5.17
2018-12-22T08:39:29.430Z,5.40
2018-12-22T08:42:12.438Z,5.63
2018-12-22T08:44:54.519Z,3.97
2018-12-22T08:47:36.673Z,5.07
2018-12-22T08:50:18.859Z,5.13
2018-12-22T08:53:00.603Z,5.53
2018-12-22T08:55:42.765Z,4.90
2018-12-22T08:58:24.590Z,6.00
2018-12-22T09:01:06.689Z,4.47
2018-12-22T09:03:48.541Z,4.93
2018-12-22T09:06:30.414Z,5.10
2018-12-22T09:09:12.335Z,4.47
2018-12-22T09:11:54.246Z,4.80
2018-12-22T09:14:36.283Z,4.37
2018-12-22T09:17:18.185Z,4.57
2018-12-22T09:20:00.402Z,5.43
2018-12-22T09:22:42.339Z,5.27
2018-12-22T09:25:24.632Z,4.20
2018-12-22T09:28:06.641Z,5.37
2018-12-22T09:30:48.806Z,3.90
2018-12-22T09:33:30.565Z,6.07
2018-12-22T09:36:12.666Z,5.80
2018-12-22T09:38:54.859Z,5.60
2018-12-22T09:41:36.950Z,5.33
2018-12-22T09:44:18.744Z,4.90
2018-12-22T09:47:00.892Z,4.10
2018-12-22T09:49:43.202Z,4.23
2018-12-22T09:52:25.461Z,4.30
2018-12-22T09:55:07.418Z,4.33
2018-12-22T09:57:49.130Z,5.67
2018-12-22T10:00:31.047Z,5.20
2018-12-22T10:04:16.901Z,4.90
2018-12-22T10:06:59.287Z,5.00
2018-12-22T10:09:41.447Z,5.90
2018-12-22T10:12:23.359Z,6.10
2018-12-22T10:15:06.597Z,4.50
2018-12-22T10:17:48.387Z,4.37
2018-12-22T10:20:30.361Z,4.50
2018-12-22T10:23:12.338Z,4.80
2018-12-22T10:25:54.193Z,5.33
2018-12-22T10:28:36.106Z,5.50
2018-12-22T10:31:19.158Z,5.23
2018-12-22T10:34:01.405Z,4.60
2018-12-22T10:36:43.391Z,4.83
2018-12-22T10:39:25.556Z,4.87
2018-12-22T10:42:07.453Z,4.40
2018-12-22T10:44:49.566Z,5.53
2018-12-22T10:47:31.569Z,5.53
2018-12-22T10:50:13.635Z,5.47
2018-12-22T10:52:55.699Z,6.00
2018-12-22T10:55:37.772Z,5.00
2018-12-22T10:58:19.869Z,4.50
2018-12-22T11:01:01.771Z,4.80
2018-12-22T11:03:43.750Z,5.10
2018-12-22T11:06:25.913Z,4.30
2018-12-22T11:09:11.236Z,4.50
2018-12-22T11:11:53.030Z,5.33
2018-12-22T11:14:35.190Z,5.50
2018-12-22T11:17:17.311Z,4.90
2018-12-22T11:19:59.301Z,4.70
2018-12-22T11:22:41.526Z,4.13
2018-12-22T11:25:25.474Z,5.30
2018-12-22T11:28:07.431Z,4.70
2018-12-22T11:30:49.424Z,4.80
2018-12-22T11:33:31.489Z,4.97
2018-12-22T11:36:13.429Z,4.60
2018-12-22T11:38:55.499Z,4.40
2018-12-22T11:41:37.510Z,4.67
2018-12-22T11:44:19.541Z,4.80
2018-12-22T11:47:06.884Z,4.70
2018-12-22T11:49:49.822Z,3.97
2018-12-22T11:52:31.813Z,3.73
2018-12-22T11:55:13.812Z,4.13
2018-12-22T11:57:56.098Z,3.97
2018-12-22T12:00:37.886Z,4.43
2018-12-22T12:03:19.846Z,4.93
2018-12-22T12:06:01.774Z,4.50
2018-12-22T12:08:43.878Z,4.10
2018-12-22T12:11:25.675Z,4.30
2018-12-22T12:14:07.682Z,4.50
2018-12-22T12:17:05.364Z,4.63
2018-12-22T12:19:47.734Z,4.77
2018-12-22T12:22:29.807Z,4.63
2018-12-22T12:25:12.036Z,4.33
2018-12-22T12:27:53.999Z,3.90
2018-12-22T12:30:36.145Z,3.50
2018-12-22T12:33:18.102Z,3.63
2018-12-22T12:35:59.938Z,3.97
2018-12-22T12:38:42.091Z,4.00
2018-12-22T12:41:24.134Z,3.37
2018-12-22T12:44:05.970Z,3.30
2018-12-22T12:46:50.047Z,3.83
2018-12-22T12:49:32.229Z,3.87
2018-12-22T12:52:14.350Z,4.60
2018-12-22T12:54:56.296Z,5.60
2018-12-22T12:57:38.172Z,4.00
2018-12-22T13:00:20.277Z,4.00
2018-12-22T13:03:02.483Z,3.03
2018-12-22T13:05:44.636Z,3.87
2018-12-22T13:08:26.664Z,3.33
2018-12-22T13:11:08.855Z,4.43
2018-12-22T13:14:10.326Z,4.40
2018-12-22T13:16:52.863Z,3.60
2018-12-22T13:19:34.850Z,3.23
2018-12-22T13:22:16.579Z,3.83
2018-12-22T13:24:58.834Z,2.80
2018-12-22T13:27:40.896Z,3.63
2018-12-22T13:30:22.988Z,3.27
2018-12-22T13:33:04.882Z,3.30
2018-12-22T13:35:47.046Z,3.60
2018-12-22T13:38:30.126Z,3.47
2018-12-22T13:41:11.891Z,3.30
2018-12-22T13:43:53.855Z,3.77
2018-12-22T13:46:35.906Z,3.10
2018-12-22T13:49:17.883Z,3.70
2018-12-22T13:51:59.927Z,3.40
2018-12-22T13:54:42.050Z,3.90
2018-12-22T13:57:24.011Z,3.30
2018-12-22T14:00:10.795Z,3.60
2018-12-22T14:02:52.388Z,3.80
2018-12-22T14:05:35.329Z,4.13
2018-12-22T14:08:17.331Z,3.67
2018-12-22T14:10:59.618Z,4.23
2018-12-22T14:13:41.713Z,3.40
2018-12-22T14:16:31.330Z,3.67
2018-12-22T14:19:14.819Z,3.80
2018-12-22T14:21:56.729Z,4.90
2018-12-22T14:24:43.821Z,4.23
2018-12-22T14:27:25.993Z,4.37
2018-12-22T14:30:11.002Z,4.23
2018-12-22T14:32:52.777Z,3.47
2018-12-22T14:35:44.805Z,3.07
2018-12-22T14:38:26.988Z,4.17
2018-12-22T14:41:09.009Z,3.53
2018-12-22T14:43:50.826Z,4.07
2018-12-22T14:46:32.622Z,3.87
2018-12-22T14:49:14.593Z,3.23
2018-12-22T14:51:56.552Z,2.70
2018-12-22T14:54:38.569Z,3.97
2018-12-22T14:57:20.854Z,4.30
2018-12-22T15:00:03.446Z,3.33
2018-12-22T15:02:46.226Z,3.97
2018-12-22T15:05:28.216Z,3.90
2018-12-22T15:08:10.078Z,3.60
2018-12-22T15:10:51.895Z,4.10
2018-12-22T15:13:33.850Z,4.07
2018-12-22T15:16:15.977Z,3.83
2018-12-22T15:18:58.118Z,3.70
2018-12-22T15:21:40.259Z,3.57
2018-12-22T15:24:36.718Z,4.30
2018-12-22T15:27:18.503Z,4.57
2018-12-22T15:30:00.498Z,6.00
2018-12-22T15:32:46.211Z,4.60
2018-12-22T15:35:26.174Z,11.57
2018-12-22T15:38:08.355Z,6.00
2018-12-22T15:40:50.300Z,6.47
2018-12-22T15:43:33.318Z,6.23
2018-12-22T15:46:15.135Z,5.33
2018-12-22T15:48:57.250Z,5.47
2018-12-22T15:51:39.410Z,5.17
2018-12-22T15:54:21.351Z,4.93
2018-12-22T15:57:03.561Z,4.73
2018-12-22T15:59:45.541Z,4.93
2018-12-22T16:02:27.581Z,4.87
2018-12-22T16:05:10.410Z,6.33
2018-12-22T16:07:52.656Z,15.23
2018-12-22T16:10:34.567Z,5.27
2018-12-22T16:13:16.965Z,5.17
2018-12-22T16:15:58.993Z,5.43
2018-12-22T16:18:40.878Z,6.57
2018-12-22T16:21:22.945Z,5.00
2018-12-22T16:24:04.974Z,4.73
2018-12-22T16:26:46.896Z,6.13
2018-12-22T16:29:32.234Z,5.27
2018-12-22T16:32:14.619Z,5.27
2018-12-22T16:34:56.617Z,4.30
2018-12-22T16:37:38.633Z,4.57
2018-12-22T16:40:20.602Z,4.87
2018-12-22T16:43:04.064Z,4.33
2018-12-22T16:45:49.724Z,4.57
2018-12-22T16:48:32.040Z,4.10
2018-12-22T16:51:13.641Z,6.03
2018-12-22T16:53:55.802Z,5.30
2018-12-22T16:56:37.814Z,5.50
2018-12-22T16:59:19.661Z,5.60
2018-12-22T17:02:16.525Z,5.67
2018-12-22T17:04:58.858Z,4.57
2018-12-22T17:07:41.042Z,4.83
2018-12-22T17:10:23.142Z,6.57
2018-12-22T17:13:05.126Z,5.40
2018-12-22T17:15:51.877Z,4.20
2018-12-22T17:18:34.202Z,5.07
2018-12-22T17:21:22.478Z,4.83
2018-12-22T17:24:12.661Z,4.30
2018-12-22T17:26:54.483Z,5.73
2018-12-22T17:29:36.381Z,5.37
2018-12-22T17:32:18.649Z,6.17
2018-12-22T17:35:00.708Z,4.17
2018-12-22T17:37:42.810Z,4.03
2018-12-22T17:40:24.723Z,4.80
2018-12-22T17:43:06.927Z,5.23
2018-12-22T17:45:48.999Z,4.50
2018-12-22T17:48:30.747Z,6.47
2018-12-22T17:51:12.841Z,4.60
2018-12-22T17:53:54.971Z,4.37
2018-12-22T17:56:36.891Z,4.30
2018-12-22T17:59:18.801Z,4.30
2018-12-22T18:02:01.487Z,4.37
2018-12-22T18:04:43.201Z,4.33
2018-12-22T18:07:24.922Z,4.30
2018-12-22T18:10:08.205Z,4.77
2018-12-22T18:12:50.150Z,4.70
2018-12-22T18:15:31.998Z,4.10
2018-12-22T18:18:14.213Z,4.83
2018-12-22T18:20:56.058Z,4.97
2018-12-22T18:23:38.198Z,4.87
2018-12-22T18:26:20.372Z,5.30
2018-12-22T18:29:02.288Z,5.73
2018-12-22T18:31:44.447Z,6.47
2018-12-22T18:34:26.510Z,6.63
2018-12-22T18:37:08.501Z,5.63
2018-12-22T18:39:50.416Z,8.07
2018-12-22T18:42:32.384Z,7.60
2018-12-22T18:45:14.330Z,7.03
2018-12-22T18:47:56.395Z,7.17
2018-12-22T18:50:38.739Z,5.57
2018-12-22T18:53:20.845Z,6.67
2018-12-22T18:56:02.675Z,5.53
2018-12-22T18:58:45.011Z,7.33
2018-12-22T19:01:26.711Z,6.07
2018-12-22T19:04:08.864Z,7.60
2018-12-22T19:06:50.919Z,6.97
2018-12-22T19:09:34.924Z,7.07
2018-12-22T19:12:18.306Z,6.17
2018-12-22T19:15:00.402Z,6.90
2018-12-22T19:17:42.321Z,5.40
2018-12-22T19:20:28.558Z,7.67
2018-12-22T19:23:12.271Z,6.97
2018-12-22T19:25:54.784Z,7.07
2018-12-22T19:28:36.654Z,6.77
2018-12-22T19:31:18.694Z,7.90
2018-12-22T19:34:00.421Z,7.40
2018-12-22T19:36:42.583Z,7.93
2018-12-22T19:39:24.443Z,7.17
2018-12-22T19:42:06.398Z,7.50
2018-12-22T19:44:48.499Z,8.30
2018-12-22T19:47:30.346Z,6.97
2018-12-22T19:50:12.518Z,6.70
2018-12-22T19:52:54.504Z,6.83
2018-12-22T19:55:36.189Z,6.83
2018-12-22T19:58:18.225Z,7.87
2018-12-22T20:01:00.526Z,7.50
2018-12-22T20:03:42.526Z,6.90
2018-12-22T20:06:25.156Z,7.20
2018-12-22T20:09:07.135Z,6.93
2018-12-22T20:11:49.421Z,7.13
2018-12-22T20:14:31.116Z,6.70
2018-12-22T20:17:13.244Z,6.70
2018-12-22T20:19:55.253Z,6.53
2018-12-22T20:22:37.095Z,6.77
2018-12-22T20:25:18.992Z,6.00
2018-12-22T20:28:00.978Z,6.60
2018-12-22T20:30:44.226Z,6.27
2018-12-22T20:33:26.286Z,6.57
2018-12-22T20:36:08.221Z,6.13
2018-12-22T20:38:50.293Z,6.40
2018-12-22T20:41:32.301Z,6.33
2018-12-22T20:44:14.154Z,7.13
2018-12-22T20:46:56.264Z,5.77
2018-12-22T20:49:38.078Z,6.97
2018-12-22T20:52:20.020Z,7.63
2018-12-22T20:55:01.662Z,7.63
2018-12-22T20:57:43.730Z,6.87
2018-12-22T21:00:25.607Z,6.53
2018-12-22T21:03:07.522Z,7.40
2018-12-22T21:05:58.506Z,6.97
2018-12-22T21:08:40.494Z,6.57
2018-12-22T21:11:22.219Z,6.80
2018-12-22T21:14:04.527Z,6.80
2018-12-22T21:16:47.302Z,5.73
2018-12-22T21:19:28.953Z,6.53
2018-12-22T21:22:10.885Z,6.23
2018-12-22T21:24:53.009Z,5.87
2018-12-22T21:27:34.833Z,7.37
2018-12-22T21:30:16.980Z,5.80
2018-12-22T21:32:59.302Z,6.83
2018-12-22T21:35:41.393Z,5.80
2018-12-22T21:38:24.336Z,6.57
2018-12-22T21:41:06.550Z,7.50
2018-12-22T21:43:48.520Z,5.90
2018-12-22T21:46:30.947Z,5.60
2018-12-22T21:49:13.030Z,6.27
2018-12-22T21:51:54.866Z,6.20
2018-12-22T21:54:36.941Z,6.30
2018-12-22T21:57:18.941Z,6.90
2018-12-22T22:00:00.677Z,6.23
2018-12-22T22:02:42.814Z,6.00
2018-12-22T22:05:24.758Z,6.60
2018-12-22T22:08:06.730Z,5.97
2018-12-22T22:10:48.596Z,7.03
2018-12-22T22:13:30.822Z,7.50
2018-12-22T22:16:12.785Z,6.73
2018-12-22T22:18:54.876Z,6.70
2018-12-22T22:21:37.129Z,6.37
2018-12-22T22:24:19.207Z,6.17
2018-12-22T22:27:01.242Z,6.60
2018-12-22T22:29:43.058Z,6.70
2018-12-22T22:32:25.202Z,6.83
2018-12-22T22:35:07.390Z,6.40
2018-12-22T22:40:45.447Z,5.97
2018-12-22T22:43:27.818Z,8.23
2018-12-22T22:46:09.934Z,6.27
2018-12-22T22:48:51.826Z,6.93
2018-12-22T22:51:33.829Z,6.23
2018-12-22T22:54:15.932Z,6.63
2018-12-22T22:56:59.390Z,6.67
2018-12-22T22:59:41.917Z,6.67
2018-12-22T23:02:24.122Z,6.10
2018-12-22T23:05:06.013Z,6.33
2018-12-22T23:07:47.717Z,7.00
2018-12-22T23:10:29.694Z,5.80
2018-12-22T23:13:11.648Z,5.63
2018-12-22T23:15:53.946Z,6.57
2018-12-22T23:18:35.981Z,8.20
2018-12-22T23:21:19.151Z,6.40
2018-12-22T23:24:01.185Z,6.40
2018-12-22T23:26:43.493Z,6.37
2018-12-22T23:29:25.280Z,5.97
2018-12-22T23:32:07.379Z,6.20
2018-12-22T23:34:49.530Z,5.33
2018-12-22T23:37:31.646Z,6.10
2018-12-22T23:40:14.485Z,6.47
2018-12-22T23:42:56.914Z,5.57
2018-12-22T23:45:39.115Z,7.30
2018-12-22T23:48:21.339Z,6.63
2018-12-22T23:51:02.954Z,5.80
2018-12-22T23:53:45.076Z,6.37
2018-12-22T23:56:26.896Z,5.93
2018-12-22T23:59:09.086Z,7.23
